Aviation Digital Data Service (ADDS)

Output produced by METARs form (2208 UTC 28 May 2015)
found at http://aviationweather.gov/adds/metars/
 
KBDR 282203Z 2822/2918 VRB05KT P6SM VCTS BKN050CB BKN250 
     TEMPO 2822/2823 28012G22KT 4SM -TSRA BR 
     FM282300 25006KT P6SM BKN050 BKN250 
     FM290100 VRB04KT P6SM FEW100 BKN250 
     FM290400 VRB03KT 5SM BR SKC 
     FM291300 06005KT P6SM SKC 
     FM291600 11008KT P6SM FEW050